Pinsk, Belarus
Current Conditions -  °F | °C
As of 7:00 AM on Thursday 23 Oct 2014 (Local Time) from UMBB Reporting Station
Rain Showers Rain Showers  
Wind Chill: 23°   Ceiling: 1000
Heat Index: 34°   Visibility: 5mi
Dew Point: 30°   Wind: 18mph
Humidity: 87%   Direction: 70°ENE
Pressure: 30"   Gusts: 29mph
Location:  52.12°N, 26.1°E
Report Text: UMBB 230500Z 07008G13MPS 8000 -SHRA OVC010CB 01/M01 Q1016 NOSIG
Loading
Personal Weather Stations






























Interactive Weather Map
Tropical Storm Tracking
New forecast layout! Learn more

10-Day Weather Forecast

Advertisements
Track Severe Weather on mobile